Grant Co International Airport
KMWH : rendu visible

Aérodrome :











RETROUVEZ-NOUS SUR...

 
LOGIN :

S'inscrire | Disclaimer

   EN    FR    IT 

 









Légende :    VFR   VFR Marginal   IFR   IFR Intensif   IFR Très Intensif
Visi : 
Plafond : 
>= 8 km
>= 3000ft
5 à 8 km
1000 à 3000 ft
1500m à 5 km
500 à 1000 ft
800 à 1500m
200 à 500 ft
< 800m
< 200 ft
Symboles :   Orages  Brouillard  Fortes neiges  Fortes précipitations  Vent > 20 kt






- Altitude de l'aérodrome : 1189 ft


KMWH - Grant Co International

DERNIER METAR :
  • 210752Z AUTO 36009KT 10SM CLR M01/M05 A3014 RMK AO2 SLP213 T10111050 401331017

METARs EXPIRÉS :
  • 210652Z AUTO 02009KT 10SM CLR 01/M04 A3014 RMK AO2 SLP214 T00061044
  • 210552Z AUTO 35006KT 10SM CLR M01/M04 A3015 RMK AO2 SLP216 T10061044 10106 21006 50005

TAF KMWH
Valide du 21 à 06h jusqu'au 22 à 06h UTC


210538Z 2106/2206 01009KT P6SM SKC
FM211500 VRB04KT P6SM SKC



MET'MAP, la Météo Aéronautique d'un coup d'oeil ! - Copyright ORBIFLY Décembre 2007 - Disclaimer

ORBIFLY MET'MAP TEAM :

Programmation & Développement : Alexandra Zaïnal
Conception & Développement : Baudouin d'Aumeries
Co-Programmation & Développement : Marc-Olivier Méhu
Soutien technique & logistique : Manuel Goepfert

Contact : metmap@orbifly.com




SOURCES & CREDITS :

   NOAA       Earth
Advisory